createdAt,value
2019-06-10T00:02:04.236Z,18.37
2019-06-10T00:07:08.524Z,20.65
2019-06-10T00:09:41.986Z,20.10
2019-06-10T00:12:14.449Z,18.40
2019-06-10T00:14:46.796Z,19.00
2019-06-10T00:17:21.380Z,18.62
2019-06-10T00:19:53.626Z,19.40
2019-06-10T00:22:26.056Z,18.60
2019-06-10T00:24:59.531Z,22.05
2019-06-10T00:30:09.932Z,15.10
2019-06-10T00:32:42.329Z,17.23
2019-06-10T00:35:16.257Z,17.77
2019-06-10T00:37:51.073Z,17.62
2019-06-10T00:40:22.813Z,20.17
2019-06-10T00:42:55.271Z,17.32
2019-06-10T00:45:27.522Z,22.87
2019-06-10T00:48:12.360Z,19.10
2019-06-10T00:50:36.057Z,24.37
2019-06-10T00:55:41.942Z,23.07
2019-06-10T00:58:14.584Z,21.57
2019-06-10T01:00:47.122Z,22.15
2019-06-10T01:03:20.967Z,20.60
2019-06-10T01:05:53.281Z,17.12
2019-06-10T01:08:25.840Z,19.50
2019-06-10T01:10:58.066Z,18.35
2019-06-10T01:13:30.943Z,15.83
2019-06-10T01:16:03.747Z,16.65
2019-06-10T01:18:38.547Z,20.85
2019-06-10T01:21:13.878Z,18.75
2019-06-10T01:23:45.721Z,23.77
2019-06-10T01:26:21.604Z,19.25
2019-06-10T01:28:53.620Z,22.75
2019-06-10T01:31:26.118Z,25.23
2019-06-10T01:34:00.754Z,19.55
2019-06-10T01:36:32.502Z,24.20
2019-06-10T01:39:07.224Z,24.32
2019-06-10T01:41:40.909Z,26.60
2019-06-10T01:46:46.422Z,18.73
2019-06-10T01:49:21.156Z,21.02
2019-06-10T01:54:25.466Z,24.35
2019-06-10T01:56:57.806Z,23.10
2019-06-10T01:59:31.155Z,23.05
2019-06-10T02:02:15.718Z,23.70
2019-06-10T02:04:51.725Z,22.87
2019-06-10T02:07:24.255Z,22.15
2019-06-10T02:09:57.819Z,24.32
2019-06-10T02:12:31.563Z,28.83
2019-06-10T02:17:37.118Z,21.17
2019-06-10T02:20:10.646Z,20.88
2019-06-10T02:22:43.801Z,16.35
2019-06-10T02:25:16.742Z,18.07
2019-06-10T02:27:50.739Z,16.87
2019-06-10T02:30:39.045Z,21.57
2019-06-10T02:35:43.374Z,22.80
2019-06-10T02:40:36.893Z,23.40
2019-06-10T02:43:14.265Z,19.77
2019-06-10T02:45:45.365Z,20.60
2019-06-10T02:48:21.866Z,28.35
2019-06-10T02:50:58.999Z,23.07
2019-06-10T02:53:35.971Z,25.17
2019-06-10T02:56:08.699Z,27.95
2019-06-10T02:58:45.080Z,24.95
2019-06-10T03:01:17.005Z,25.25
2019-06-10T03:03:53.344Z,25.57
2019-06-10T03:06:34.656Z,32.23
2019-06-10T03:11:37.296Z,23.85
2019-06-10T03:14:09.435Z,28.73
2019-06-10T03:16:44.490Z,24.27
2019-06-10T03:19:37.059Z,32.05
2019-06-10T03:21:52.296Z,31.80
2019-06-10T03:24:25.348Z,33.80
2019-06-10T03:26:58.916Z,30.40
2019-06-10T03:29:32.776Z,25.43
2019-06-10T03:34:45.878Z,26.10
2019-06-10T03:37:12.912Z,29.05
2019-06-10T03:39:45.353Z,35.70
2019-06-10T03:42:18.778Z,31.05
2019-06-10T03:44:52.539Z,43.55
2019-06-10T03:47:27.149Z,35.65
2019-06-10T03:49:59.210Z,39.98
2019-06-10T03:52:32.439Z,37.70
2019-06-10T03:55:07.495Z,35.88
2019-06-10T03:57:42.110Z,40.55
2019-06-10T04:00:14.940Z,42.17
2019-06-10T04:02:47.262Z,38.97
2019-06-10T04:05:19.874Z,42.45
2019-06-10T04:07:55.094Z,43.73
2019-06-10T04:10:29.732Z,48.52
2019-06-10T04:13:03.337Z,45.80
2019-06-10T04:15:35.526Z,48.08
2019-06-10T04:18:08.022Z,48.38
2019-06-10T04:20:42.672Z,47.30
2019-06-10T04:23:17.619Z,42.33
2019-06-10T04:25:52.536Z,34.75
2019-06-10T04:28:25.590Z,21.65
2019-06-10T04:30:58.039Z,17.60
2019-06-10T04:33:32.831Z,20.32
2019-06-10T04:36:05.612Z,24.70
2019-06-10T04:38:38.036Z,27.73
2019-06-10T04:41:12.658Z,25.82
2019-06-10T04:43:47.063Z,20.25
2019-06-10T04:46:23.658Z,17.10
2019-06-10T04:48:55.197Z,19.82
2019-06-10T04:51:28.487Z,21.42
2019-06-10T04:54:03.133Z,21.15
2019-06-10T04:56:36.381Z,20.77
2019-06-10T04:59:08.704Z,28.10
2019-06-10T05:01:43.339Z,40.28
2019-06-10T05:04:15.657Z,33.05
2019-06-10T05:06:49.312Z,40.78
2019-06-10T05:09:23.951Z,41.40
2019-06-10T05:11:55.860Z,37.42
2019-06-10T05:14:29.101Z,41.50
2019-06-10T05:17:04.334Z,27.98
2019-06-10T05:19:36.691Z,25.37
2019-06-10T05:22:09.193Z,29.12
2019-06-10T05:24:42.991Z,32.67
2019-06-10T05:27:15.280Z,32.23
2019-06-10T05:29:47.824Z,27.48
2019-06-10T05:32:23.218Z,29.37
2019-06-10T05:34:56.338Z,32.78
2019-06-10T05:37:29.362Z,40.50
2019-06-10T05:40:05.960Z,40.95
2019-06-10T05:42:38.118Z,41.63
2019-06-10T05:45:12.272Z,42.33
2019-06-10T05:47:45.559Z,38.67
2019-06-10T05:50:17.871Z,37.00
2019-06-10T05:52:52.042Z,40.12
2019-06-10T05:55:25.507Z,57.73
2019-06-10T05:57:59.053Z,49.13
2019-06-10T06:00:33.490Z,45.45
2019-06-10T06:03:05.677Z,49.33
2019-06-10T06:05:40.651Z,60.38
2019-06-10T06:08:12.877Z,57.13
2019-06-10T06:10:47.779Z,60.80
2019-06-10T06:13:19.900Z,68.17
2019-06-10T06:15:53.651Z,59.80
2019-06-10T06:20:57.897Z,75.57
2019-06-10T06:23:32.933Z,71.15
2019-06-10T06:26:07.703Z,74.92
2019-06-10T06:28:43.139Z,67.47
2019-06-10T06:31:16.584Z,57.83
2019-06-10T06:33:49.124Z,54.77
2019-06-10T06:36:22.639Z,52.80
2019-06-10T06:41:27.456Z,43.80
2019-06-10T06:44:02.138Z,44.47
2019-06-10T06:46:37.509Z,34.83
2019-06-10T06:49:08.338Z,29.70
2019-06-10T06:51:51.725Z,25.70
2019-06-10T06:56:45.953Z,26.42
2019-06-10T06:59:22.397Z,22.10
2019-06-10T07:01:54.992Z,25.05
2019-06-10T07:04:29.643Z,22.93
2019-06-10T07:07:04.241Z,31.33
2019-06-10T07:09:37.408Z,24.72
2019-06-10T07:12:13.059Z,28.67
2019-06-10T07:14:48.553Z,34.00
2019-06-10T07:17:22.740Z,36.10
2019-06-10T07:19:57.565Z,33.33
2019-06-10T07:22:29.414Z,36.40
2019-06-10T07:25:06.374Z,31.62
2019-06-10T07:27:38.381Z,24.82
2019-06-10T07:30:14.270Z,25.92
2019-06-10T07:32:47.277Z,22.00
2019-06-10T07:35:22.223Z,19.60
2019-06-10T07:37:58.151Z,22.77
2019-06-10T07:40:32.968Z,20.48
2019-06-10T07:43:06.369Z,24.67
2019-06-10T07:45:41.857Z,22.42
2019-06-10T07:48:16.511Z,17.75
2019-06-10T07:50:49.910Z,18.00
2019-06-10T07:53:22.357Z,14.15
2019-06-10T07:55:55.234Z,21.80
2019-06-10T07:58:29.139Z,24.25
2019-06-10T08:01:05.512Z,21.12
2019-06-10T08:03:42.535Z,21.15
2019-06-10T08:06:15.420Z,20.45
2019-06-10T08:08:52.865Z,22.43
2019-06-10T08:11:24.722Z,17.00
2019-06-10T08:13:58.303Z,14.78
2019-06-10T08:16:32.702Z,14.13
2019-06-10T08:19:31.568Z,13.48
2019-06-10T08:21:40.370Z,10.32
2019-06-10T08:24:14.204Z,13.78
2019-06-10T08:26:47.769Z,8.30
2019-06-10T08:29:23.580Z,11.73
2019-06-10T08:31:55.723Z,9.93
2019-06-10T08:34:32.779Z,10.40
2019-06-10T08:37:04.679Z,14.13
2019-06-10T08:39:38.243Z,13.10
2019-06-10T08:42:12.443Z,13.10
2019-06-10T08:44:47.268Z,13.30
2019-06-10T08:47:20.021Z,9.40
2019-06-10T08:49:54.109Z,12.25
2019-06-10T08:52:29.799Z,12.07
2019-06-10T08:55:03.299Z,15.68
2019-06-10T08:57:38.392Z,14.58
2019-06-10T09:00:15.549Z,19.90
2019-06-10T09:02:53.655Z,15.90
2019-06-10T09:05:24.728Z,19.92
2019-06-10T09:07:57.102Z,13.13
2019-06-10T09:10:31.456Z,17.60
2019-06-10T09:13:08.732Z,13.25
2019-06-10T09:16:07.126Z,9.58
2019-06-10T09:18:25.468Z,11.97
2019-06-10T09:20:59.039Z,13.05
2019-06-10T09:23:33.192Z,9.90
2019-06-10T09:26:05.520Z,7.22
2019-06-10T09:28:46.219Z,10.50
2019-06-10T09:31:16.716Z,11.45
2019-06-10T09:33:53.637Z,11.50
2019-06-10T09:36:24.420Z,7.80
2019-06-10T09:38:56.797Z,12.00
2019-06-10T09:41:37.341Z,12.93
2019-06-10T09:44:12.690Z,14.40
2019-06-10T09:46:48.686Z,16.77
2019-06-10T09:49:27.114Z,10.43
2019-06-10T09:51:59.719Z,9.38
2019-06-10T09:54:41.609Z,8.80
2019-06-10T09:57:28.743Z,12.37
2019-06-10T10:00:04.799Z,11.38
2019-06-10T10:02:38.716Z,12.68
2019-06-10T10:05:15.411Z,19.77
2019-06-10T10:07:52.963Z,14.73
2019-06-10T10:10:28.319Z,18.30
2019-06-10T10:13:02.685Z,6.28
2019-06-10T10:15:35.636Z,14.43
2019-06-10T10:18:13.194Z,12.43
2019-06-10T10:20:48.142Z,10.55
2019-06-10T10:23:22.692Z,7.33
2019-06-10T10:25:57.397Z,7.90
2019-06-10T10:28:33.520Z,8.00
2019-06-10T10:31:09.311Z,8.18
2019-06-10T10:33:42.603Z,9.23
2019-06-10T10:36:16.527Z,9.05
2019-06-10T10:38:50.821Z,9.85
2019-06-10T10:41:24.115Z,14.85
2019-06-10T10:43:59.681Z,11.03
2019-06-10T10:46:32.684Z,12.37
2019-06-10T10:49:06.321Z,9.48
2019-06-10T10:51:41.104Z,8.13
2019-06-10T10:54:28.421Z,10.60
2019-06-10T10:56:55.166Z,5.90
2019-06-10T10:59:26.459Z,7.00
2019-06-10T11:01:57.770Z,8.13
2019-06-10T11:04:29.801Z,6.15
2019-06-10T11:07:01.667Z,5.40
2019-06-10T11:09:33.801Z,7.87
2019-06-10T11:12:04.747Z,4.17
2019-06-10T11:14:37.559Z,10.35
2019-06-10T11:17:09.199Z,7.25
2019-06-10T11:19:42.499Z,6.80
2019-06-10T11:22:14.182Z,5.70
2019-06-10T11:24:47.609Z,4.30
2019-06-10T11:27:18.174Z,9.65
2019-06-10T11:29:53.151Z,10.98
2019-06-10T11:32:26.003Z,7.40
2019-06-10T11:35:02.882Z,9.45
2019-06-10T11:37:33.238Z,9.25
2019-06-10T11:40:06.175Z,9.15
2019-06-10T11:45:08.410Z,14.58
2019-06-10T11:47:42.680Z,9.30
2019-06-10T11:52:44.336Z,9.53
2019-06-10T11:55:19.344Z,11.22
2019-06-10T11:57:53.403Z,6.12
2019-06-10T12:00:23.780Z,7.62
2019-06-10T12:02:58.211Z,10.20
2019-06-10T12:05:28.064Z,5.95
2019-06-10T12:08:01.933Z,6.90
2019-06-10T12:10:34.191Z,10.45
2019-06-10T12:13:07.903Z,5.58
2019-06-10T12:16:13.800Z,7.42
2019-06-10T12:18:13.141Z,9.10
2019-06-10T12:20:44.507Z,10.38
2019-06-10T12:23:15.991Z,9.53
2019-06-10T12:25:49.700Z,9.18
2019-06-10T12:28:20.994Z,8.10
2019-06-10T12:30:57.389Z,10.88
2019-06-10T12:33:25.560Z,15.80
2019-06-10T12:36:00.278Z,5.80
2019-06-10T12:38:35.811Z,7.83
2019-06-10T12:41:13.796Z,8.68
2019-06-10T12:43:44.386Z,10.15
2019-06-10T12:46:15.556Z,11.28
2019-06-10T12:48:47.599Z,9.30
2019-06-10T12:51:18.650Z,10.75
2019-06-10T12:53:51.456Z,7.35
2019-06-10T12:56:22.959Z,10.40
2019-06-10T12:58:56.384Z,10.25
2019-06-10T13:01:28.883Z,8.18
2019-06-10T13:04:05.412Z,6.30
2019-06-10T13:06:36.692Z,6.97
2019-06-10T13:09:08.799Z,4.80
2019-06-10T13:11:43.166Z,10.47
2019-06-10T13:14:18.189Z,6.78
2019-06-10T13:16:48.231Z,8.45
2019-06-10T13:19:19.153Z,4.72
2019-06-10T13:21:52.775Z,7.70
2019-06-10T13:26:56.543Z,8.28
2019-06-10T13:29:28.641Z,7.47
2019-06-10T13:32:02.827Z,5.30
2019-06-10T13:34:34.533Z,9.70
2019-06-10T13:37:08.177Z,10.43
2019-06-10T13:39:39.060Z,8.05
2019-06-10T13:42:10.260Z,9.43
2019-06-10T13:44:42.756Z,10.72
2019-06-10T13:47:15.621Z,10.68
2019-06-10T13:49:49.204Z,9.53
2019-06-10T13:52:25.504Z,7.37
2019-06-10T13:54:56.530Z,10.32
2019-06-10T13:57:29.178Z,7.60
2019-06-10T14:00:07.831Z,7.33
2019-06-10T14:02:43.124Z,9.10
2019-06-10T14:05:18.218Z,11.07
2019-06-10T14:07:46.582Z,8.93
2019-06-10T14:10:19.306Z,7.08
2019-06-10T14:12:52.519Z,9.15
2019-06-10T14:15:24.236Z,9.10
2019-06-10T14:17:57.894Z,5.90
2019-06-10T14:20:32.545Z,9.40
2019-06-10T14:23:04.127Z,9.30
2019-06-10T14:25:35.544Z,7.72
2019-06-10T14:28:12.608Z,9.20
2019-06-10T14:30:45.737Z,7.65
2019-06-10T14:33:16.842Z,8.50
2019-06-10T14:35:49.849Z,9.05
2019-06-10T14:38:22.616Z,7.08
2019-06-10T14:40:53.944Z,6.62
2019-06-10T14:43:25.354Z,8.53
2019-06-10T14:45:56.319Z,12.80
2019-06-10T14:48:27.243Z,12.53
2019-06-10T14:50:58.377Z,16.95
2019-06-10T14:53:29.686Z,11.60
2019-06-10T14:56:03.664Z,14.45
2019-06-10T14:58:34.629Z,15.15
2019-06-10T15:01:07.505Z,18.85
2019-06-10T15:03:42.771Z,20.92
2019-06-10T15:06:15.583Z,16.42
2019-06-10T15:08:47.826Z,18.67
2019-06-10T15:11:20.119Z,12.63
2019-06-10T15:13:52.336Z,14.65
2019-06-10T15:16:23.834Z,18.35
2019-06-10T15:19:02.657Z,17.70
2019-06-10T15:21:27.833Z,12.65
2019-06-10T15:23:59.821Z,13.90
2019-06-10T15:26:32.698Z,13.72
2019-06-10T15:29:03.667Z,15.00
2019-06-10T15:31:34.673Z,14.73
2019-06-10T15:34:05.660Z,17.82
2019-06-10T15:36:36.929Z,13.20
2019-06-10T15:39:09.160Z,13.83
2019-06-10T15:41:42.776Z,14.78
2019-06-10T15:44:17.324Z,16.55
2019-06-10T15:46:46.790Z,20.50
2019-06-10T15:49:19.755Z,13.65
2019-06-10T15:51:52.559Z,18.40
2019-06-10T15:54:25.353Z,14.90
2019-06-10T15:56:57.739Z,16.27
2019-06-10T15:59:29.934Z,13.43
2019-06-10T16:02:02.540Z,12.58
2019-06-10T16:04:35.312Z,18.00
2019-06-10T16:07:07.952Z,13.87
2019-06-10T16:09:38.975Z,11.78
2019-06-10T16:12:14.720Z,12.18
2019-06-10T16:17:14.530Z,13.53
2019-06-10T16:19:46.486Z,13.25
2019-06-10T16:22:17.913Z,18.67
2019-06-10T16:24:49.279Z,16.35
2019-06-10T16:27:22.558Z,19.35
2019-06-10T16:29:53.058Z,17.75
2019-06-10T16:32:26.445Z,16.15
2019-06-10T16:34:56.785Z,17.85
2019-06-10T16:37:27.696Z,15.55
2019-06-10T16:39:59.099Z,18.05
2019-06-10T16:42:32.165Z,26.82
2019-06-10T16:45:03.577Z,25.00
2019-06-10T16:47:34.638Z,21.05
2019-06-10T16:50:06.320Z,19.23
2019-06-10T16:52:38.843Z,18.80
2019-06-10T16:55:09.739Z,19.48
2019-06-10T16:57:40.918Z,16.60
2019-06-10T17:00:14.568Z,18.32
2019-06-10T17:02:45.622Z,14.80
2019-06-10T17:05:18.446Z,18.65
2019-06-10T17:07:52.433Z,17.65
2019-06-10T17:10:24.014Z,19.73
2019-06-10T17:13:03.137Z,18.52
2019-06-10T17:15:33.668Z,21.02
2019-06-10T17:18:04.685Z,26.62
2019-06-10T17:20:35.649Z,19.60
2019-06-10T17:23:24.639Z,14.95
2019-06-10T17:25:55.153Z,19.92
2019-06-10T17:28:31.364Z,17.95
2019-06-10T17:31:03.857Z,18.23
2019-06-10T17:33:35.643Z,18.03
2019-06-10T17:36:09.019Z,18.75
2019-06-10T17:38:42.976Z,20.00
2019-06-10T17:41:13.819Z,18.93
2019-06-10T17:43:44.949Z,17.45
2019-06-10T17:46:21.765Z,20.60
2019-06-10T17:48:52.305Z,24.57
2019-06-10T17:51:26.139Z,18.67
2019-06-10T17:53:56.827Z,20.57
2019-06-10T17:56:29.434Z,16.77
2019-06-10T17:59:03.337Z,24.97
2019-06-10T18:01:35.691Z,19.32
2019-06-10T18:04:06.766Z,23.77
2019-06-10T18:06:38.142Z,22.52
2019-06-10T18:09:09.254Z,19.50
2019-06-10T18:11:42.853Z,18.32
2019-06-10T18:14:15.943Z,20.47
2019-06-10T18:16:48.358Z,25.05
2019-06-10T18:19:22.256Z,17.87
2019-06-10T18:21:54.001Z,19.57
2019-06-10T18:24:26.279Z,16.70
2019-06-10T18:26:57.911Z,14.20
2019-06-10T18:29:33.646Z,14.20
2019-06-10T18:32:03.585Z,19.05
2019-06-10T18:34:37.640Z,14.35
2019-06-10T18:37:07.730Z,10.40
2019-06-10T18:39:39.906Z,16.80
2019-06-10T18:42:12.649Z,11.33
2019-06-10T18:44:43.839Z,20.10
2019-06-10T18:47:15.022Z,14.13
2019-06-10T18:49:46.032Z,16.12
2019-06-10T18:52:17.192Z,12.90
2019-06-10T18:54:49.712Z,17.02
2019-06-10T18:57:22.457Z,16.30
2019-06-10T18:59:53.387Z,17.82
2019-06-10T19:02:28.218Z,14.13
2019-06-10T19:05:02.819Z,21.07
2019-06-10T19:07:35.375Z,12.93
2019-06-10T19:10:07.937Z,16.27
2019-06-10T19:12:39.760Z,13.90
2019-06-10T19:15:13.090Z,19.35
2019-06-10T19:17:45.361Z,12.47
2019-06-10T19:20:17.421Z,14.07
2019-06-10T19:22:49.320Z,18.42
2019-06-10T19:25:21.168Z,23.55
2019-06-10T19:27:53.085Z,22.58
2019-06-10T19:30:24.292Z,12.65
2019-06-10T19:32:55.534Z,14.35
2019-06-10T19:35:26.532Z,20.68
2019-06-10T19:37:58.627Z,14.13
2019-06-10T19:40:32.110Z,17.15
2019-06-10T19:43:03.277Z,17.40
2019-06-10T19:45:34.651Z,16.27
2019-06-10T19:48:08.677Z,12.88
2019-06-10T19:50:43.730Z,15.05
2019-06-10T19:53:13.057Z,25.05
2019-06-10T19:55:45.949Z,15.78
2019-06-10T19:58:16.920Z,16.62
2019-06-10T20:00:51.144Z,17.82
2019-06-10T20:03:22.321Z,17.40
2019-06-10T20:05:53.588Z,16.30
2019-06-10T20:08:25.706Z,15.40
2019-06-10T20:10:56.595Z,13.08
2019-06-10T20:13:27.698Z,11.25
2019-06-10T20:15:59.875Z,15.90
2019-06-10T20:18:33.044Z,18.02
2019-06-10T20:21:03.610Z,18.27
2019-06-10T20:23:35.413Z,15.58
2019-06-10T20:26:06.603Z,14.03
2019-06-10T20:28:38.598Z,16.50
2019-06-10T20:31:09.704Z,17.80
2019-06-10T20:33:43.093Z,16.50
2019-06-10T20:36:21.806Z,11.53
2019-06-10T20:38:48.932Z,19.07
2019-06-10T20:41:20.428Z,11.77
2019-06-10T20:43:55.446Z,13.32
2019-06-10T20:46:25.419Z,15.63
2019-06-10T20:48:57.506Z,22.40
2019-06-10T20:51:28.565Z,15.58
2019-06-10T20:53:59.593Z,20.05
2019-06-10T20:56:33.524Z,16.67
2019-06-10T20:59:03.604Z,16.12
2019-06-10T21:01:34.748Z,17.85
2019-06-10T21:04:05.878Z,16.37
2019-06-10T21:06:38.981Z,17.50
2019-06-10T21:09:10.079Z,17.13
2019-06-10T21:11:45.115Z,17.77
2019-06-10T21:14:15.156Z,19.05
2019-06-10T21:16:46.518Z,20.17
2019-06-10T21:19:17.599Z,18.25
2019-06-10T21:21:49.770Z,15.15
2019-06-10T21:24:23.166Z,16.17
2019-06-10T21:26:54.863Z,13.03
2019-06-10T21:29:27.144Z,14.40
2019-06-10T21:31:59.116Z,12.07
2019-06-10T21:34:29.986Z,14.38
2019-06-10T21:37:03.185Z,14.85
2019-06-10T21:39:35.529Z,15.48
2019-06-10T21:42:06.575Z,18.45
2019-06-10T21:44:37.490Z,11.30
2019-06-10T21:47:08.508Z,13.40
2019-06-10T21:49:42.477Z,12.20
2019-06-10T21:52:13.174Z,12.88
2019-06-10T21:54:45.212Z,10.78
2019-06-10T21:57:16.101Z,17.67
2019-06-10T21:59:47.053Z,16.57
2019-06-10T22:02:17.954Z,15.88
2019-06-10T22:04:49.440Z,13.68
2019-06-10T22:07:22.423Z,18.07
2019-06-10T22:09:56.008Z,19.73
2019-06-10T22:12:26.039Z,17.98
2019-06-10T22:14:57.122Z,18.67
2019-06-10T22:17:29.033Z,20.77
2019-06-10T22:20:00.217Z,18.05
2019-06-10T22:22:32.321Z,20.88
2019-06-10T22:25:03.819Z,18.37
2019-06-10T22:27:34.795Z,22.25
2019-06-10T22:30:11.348Z,22.42
2019-06-10T22:32:42.716Z,21.52
2019-06-10T22:35:14.534Z,33.10
2019-06-10T22:37:45.666Z,26.80
2019-06-10T22:40:16.678Z,24.32
2019-06-10T22:42:47.686Z,20.62
2019-06-10T22:45:18.814Z,28.38
2019-06-10T22:47:52.255Z,25.97
2019-06-10T22:50:23.036Z,19.62
2019-06-10T22:52:57.037Z,20.70
2019-06-10T22:55:26.994Z,21.17
2019-06-10T22:58:02.332Z,21.02
2019-06-10T23:00:31.997Z,19.95
2019-06-10T23:03:02.982Z,20.85
2019-06-10T23:05:34.494Z,18.17
2019-06-10T23:08:05.554Z,22.60
2019-06-10T23:10:36.632Z,26.20
2019-06-10T23:13:07.738Z,24.75
2019-06-10T23:15:38.662Z,27.02
2019-06-10T23:18:12.800Z,26.95
2019-06-10T23:20:43.385Z,25.08
2019-06-10T23:23:14.412Z,26.00
2019-06-10T23:25:45.487Z,24.35
2019-06-10T23:28:16.641Z,24.10
2019-06-10T23:30:47.982Z,21.25
2019-06-10T23:33:19.191Z,28.70
2019-06-10T23:35:50.372Z,19.75
2019-06-10T23:38:23.524Z,20.70
2019-06-10T23:40:55.225Z,16.05
2019-06-10T23:43:26.258Z,19.55
2019-06-10T23:45:57.400Z,19.27
2019-06-10T23:48:28.472Z,21.93
2019-06-10T23:51:00.477Z,16.80
2019-06-10T23:53:32.812Z,22.48
2019-06-10T23:56:05.003Z,22.45
2019-06-10T23:58:36.402Z,23.42
